Time;durP1;ratioP1;P1;durP2;ratioP2;P2;SDS_P1;SDS_P2;PMS_P1;PMS_P2;Temp;Humidity;BMP_temperature;BMP_pressure;BME280_temperature;BME280_humidity;BME280_pressure;Samples;Min_cycle;Max_cycle;Signal;HPM_P1;HPM_P2
2023/07/22 00:01:25;;;;;;;9.03;6.93;;;15.00;99.90;;;;;;5067088;28;20173;-70
2023/07/22 00:03:51;;;;;;;9.30;7.50;;;15.10;99.90;;;;;;5066696;28;20187;-70
2023/07/22 00:06:17;;;;;;;7.80;7.00;;;15.00;99.90;;;;;;5066542;28;20584;-70
2023/07/22 00:08:42;;;;;;;9.70;7.10;;;15.00;99.90;;;;;;5067122;28;20211;-71
2023/07/22 00:11:08;;;;;;;8.00;7.20;;;14.90;99.90;;;;;;5064345;28;20196;-70
2023/07/22 00:13:35;;;;;;;9.00;7.10;;;14.90;99.90;;;;;;5066621;28;20208;-71
2023/07/22 00:16:01;;;;;;;8.53;6.90;;;14.80;99.90;;;;;;5066848;28;20185;-71
2023/07/22 00:18:27;;;;;;;10.60;7.57;;;14.80;99.90;;;;;;5066947;28;21001;-70
2023/07/22 00:20:54;;;;;;;8.70;6.93;;;14.80;99.90;;;;;;5066886;28;20411;-71
2023/07/22 00:23:20;;;;;;;10.37;7.40;;;14.90;99.90;;;;;;5066539;28;20410;-70
2023/07/22 00:25:49;;;;;;;7.57;6.77;;;14.90;99.90;;;;;;5066535;28;20455;-71
2023/07/22 00:28:15;;;;;;;8.60;7.27;;;15.00;99.90;;;;;;5067430;28;20407;-70
2023/07/22 00:30:41;;;;;;;7.43;6.73;;;15.00;99.90;;;;;;5069242;28;20442;-71
2023/07/22 00:33:07;;;;;;;10.33;6.93;;;15.00;99.90;;;;;;5070371;28;20177;-71
2023/07/22 00:35:33;;;;;;;8.70;6.77;;;15.10;99.90;;;;;;5070388;28;20407;-70
2023/07/22 00:38:01;;;;;;;9.13;8.23;;;15.00;99.90;;;;;;5070452;28;20713;-70
2023/07/22 00:40:26;;;;;;;9.33;7.53;;;15.00;99.90;;;;;;5070399;28;20906;-71
2023/07/22 00:42:52;;;;;;;8.43;6.87;;;15.00;99.90;;;;;;5070168;28;20435;-70
2023/07/22 00:45:18;;;;;;;9.70;8.27;;;15.00;99.90;;;;;;5069802;28;20258;-70
2023/07/22 00:47:45;;;;;;;9.30;6.80;;;15.00;99.90;;;;;;5070233;28;20200;-71
2023/07/22 00:50:10;;;;;;;9.33;7.33;;;15.00;99.90;;;;;;5070197;28;20196;-71
2023/07/22 00:52:37;;;;;;;10.10;8.40;;;15.00;99.90;;;;;;5069896;28;20404;-72
2023/07/22 00:55:04;;;;;;;8.40;7.50;;;15.00;99.90;;;;;;5069611;28;20185;-70
2023/07/22 00:57:31;;;;;;;7.83;6.87;;;15.00;99.90;;;;;;5069060;28;20486;-71
2023/07/22 00:59:56;;;;;;;7.90;7.10;;;15.00;99.90;;;;;;5070043;28;20407;-71
2023/07/22 01:02:23;;;;;;;8.87;6.57;;;15.10;99.90;;;;;;5069438;28;20770;-71
2023/07/22 01:04:50;;;;;;;8.33;7.30;;;15.10;99.90;;;;;;5069471;28;20459;-71
2023/07/22 01:07:16;;;;;;;7.60;6.50;;;15.10;99.90;;;;;;5069674;28;20839;-71
2023/07/22 01:09:43;;;;;;;8.77;7.87;;;15.20;99.90;;;;;;5069904;28;20932;-70
2023/07/22 01:12:09;;;;;;;7.90;7.10;;;15.20;99.90;;;;;;5069169;28;20181;-71
2023/07/22 01:14:37;;;;;;;8.77;6.57;;;15.20;99.90;;;;;;5069873;28;20418;-70
2023/07/22 01:17:05;;;;;;;8.13;6.63;;;15.30;99.90;;;;;;5069452;28;20526;-71
2023/07/22 01:19:31;;;;;;;7.83;7.03;;;15.30;99.90;;;;;;5069621;28;20407;-71
2023/07/22 01:22:02;;;;;;;8.67;7.57;;;15.20;99.90;;;;;;5069453;28;20414;-71
2023/07/22 01:24:32;;;;;;;7.27;6.43;;;15.30;99.90;;;;;;5069401;28;20479;-71
2023/07/22 01:26:58;;;;;;;8.30;6.17;;;15.20;99.90;;;;;;5068042;28;20427;-71
2023/07/22 01:29:24;;;;;;;9.03;7.43;;;15.20;99.90;;;;;;5069252;28;20498;-71
2023/07/22 01:31:52;;;;;;;7.90;7.10;;;15.30;99.90;;;;;;5069553;28;20469;-71
2023/07/22 01:34:17;;;;;;;8.80;7.77;;;15.30;99.90;;;;;;5067603;28;20407;-71
2023/07/22 01:36:47;;;;;;;7.33;6.23;;;15.20;99.90;;;;;;5069003;28;20442;-71
2023/07/22 01:39:14;;;;;;;8.93;7.33;;;15.20;99.90;;;;;;5069055;28;20494;-71
2023/07/22 01:41:39;;;;;;;8.33;7.53;;;15.10;99.90;;;;;;5034710;28;20414;-71
2023/07/22 01:44:05;;;;;;;7.60;6.80;;;15.20;99.90;;;;;;5068966;28;20498;-71
2023/07/22 01:46:31;;;;;;;7.10;6.40;;;15.20;99.90;;;;;;5068427;28;20304;-71
2023/07/22 01:48:57;;;;;;;9.53;6.80;;;15.20;99.90;;;;;;5068719;28;20214;-71
2023/07/22 01:51:22;;;;;;;8.37;7.17;;;15.20;99.90;;;;;;5069177;28;20173;-71
2023/07/22 01:53:49;;;;;;;12.80;7.40;;;15.30;99.90;;;;;;5068442;28;20183;-71
2023/07/22 01:56:16;;;;;;;10.40;7.70;;;15.30;99.90;;;;;;5067316;28;20247;-71
2023/07/22 01:58:42;;;;;;;7.57;6.83;;;15.20;99.90;;;;;;5068880;28;20939;-71
2023/07/22 02:01:08;;;;;;;9.63;6.63;;;15.30;99.90;;;;;;5067611;28;20408;-71
2023/07/22 02:03:33;;;;;;;8.03;6.83;;;15.30;99.90;;;;;;5067886;28;20454;-71
2023/07/22 02:06:05;;;;;;;8.40;7.30;;;15.20;99.90;;;;;;5068339;28;20663;-71
2023/07/22 02:08:31;;;;;;;9.23;7.40;;;15.20;99.90;;;;;;5068677;28;20650;-71
2023/07/22 02:11:03;;;;;;;8.23;7.33;;;15.20;99.90;;;;;;5069208;28;20406;-71
2023/07/22 02:13:33;;;;;;;8.00;7.20;;;15.20;99.90;;;;;;5067894;28;20510;-71
2023/07/22 02:15:59;;;;;;;10.60;8.40;;;15.20;99.90;;;;;;5068161;28;20474;-70
2023/07/22 02:18:25;;;;;;;9.07;7.37;;;15.30;99.90;;;;;;5067049;28;20408;-70
2023/07/22 02:20:51;;;;;;;7.87;7.07;;;15.30;99.90;;;;;;5068385;28;20457;-70
2023/07/22 02:23:18;;;;;;;10.70;7.20;;;15.30;99.90;;;;;;5067955;28;20415;-70
2023/07/22 02:25:44;;;;;;;9.20;8.10;;;15.20;99.90;;;;;;5068277;28;20196;-70
2023/07/22 02:28:10;;;;;;;9.03;7.73;;;15.20;99.90;;;;;;5068160;28;20529;-70
2023/07/22 02:30:36;;;;;;;8.70;7.80;;;15.20;99.90;;;;;;5067838;28;20419;-70
2023/07/22 02:33:04;;;;;;;9.87;8.60;;;15.20;99.90;;;;;;5068158;28;20506;-70
2023/07/22 02:35:29;;;;;;;8.80;7.90;;;15.30;99.90;;;;;;5067978;28;20866;-71
2023/07/22 02:37:55;;;;;;;9.30;7.70;;;15.30;99.90;;;;;;5067860;28;20467;-70
2023/07/22 02:40:20;;;;;;;8.47;7.53;;;15.30;99.90;;;;;;5065553;28;20649;-70
2023/07/22 02:42:46;;;;;;;8.90;7.30;;;15.30;99.90;;;;;;5066484;28;20595;-70
2023/07/22 02:45:12;;;;;;;8.30;6.77;;;15.30;99.90;;;;;;5067949;28;20201;-70
2023/07/22 02:47:38;;;;;;;9.77;7.03;;;15.30;99.90;;;;;;5067560;28;20209;-70
2023/07/22 02:50:08;;;;;;;10.17;7.40;;;15.30;99.90;;;;;;5067681;28;20426;-70
2023/07/22 02:52:34;;;;;;;9.40;7.50;;;15.30;99.90;;;;;;5067102;28;20434;-70
2023/07/22 02:55:13;;;;;;;10.00;7.73;;;15.30;99.90;;;;;;5067976;28;20499;-70
2023/07/22 02:57:39;;;;;;;8.43;7.50;;;15.30;99.90;;;;;;5067549;28;20823;-70
2023/07/22 03:00:27;;;;;;;7.17;6.47;;;15.30;99.90;;;;;;5067917;28;20449;-70
2023/07/22 03:03:00;;;;;;;8.10;6.90;;;15.30;99.90;;;;;;5066994;28;20897;-71
2023/07/22 03:05:30;;;;;;;11.93;7.57;;;15.20;99.90;;;;;;5067498;28;20980;-70
2023/07/22 03:07:56;;;;;;;9.43;7.90;;;15.30;99.90;;;;;;5068197;28;20441;-71
2023/07/22 03:10:23;;;;;;;11.37;7.80;;;15.30;99.90;;;;;;5067713;28;20403;-70
2023/07/22 03:12:49;;;;;;;9.20;7.43;;;15.30;99.90;;;;;;5067281;28;20422;-71
2023/07/22 03:15:15;;;;;;;8.10;7.30;;;15.40;99.90;;;;;;5067450;28;20594;-70
2023/07/22 03:17:43;;;;;;;11.57;7.57;;;15.40;99.90;;;;;;5067617;28;20935;-71
2023/07/22 03:20:19;;;;;;;8.70;7.70;;;15.40;99.90;;;;;;5067536;28;20540;-70
2023/07/22 03:22:46;;;;;;;9.60;7.17;;;15.40;99.90;;;;;;5067359;28;20407;-70
2023/07/22 03:25:13;;;;;;;8.70;7.53;;;15.40;99.90;;;;;;5067102;28;20461;-70
2023/07/22 03:27:39;;;;;;;8.20;7.23;;;15.40;99.90;;;;;;5067656;28;20423;-70
2023/07/22 03:30:07;;;;;;;8.30;7.00;;;15.40;99.90;;;;;;5065997;28;20506;-71
2023/07/22 03:32:34;;;;;;;8.17;7.27;;;15.40;99.90;;;;;;5067603;28;20189;-70
2023/07/22 03:35:01;;;;;;;9.80;7.07;;;15.30;99.90;;;;;;5067440;28;20418;-70
2023/07/22 03:37:27;;;;;;;8.70;7.53;;;15.40;99.90;;;;;;5067157;28;20534;-71
2023/07/22 03:39:53;;;;;;;7.93;6.80;;;15.40;99.90;;;;;;5067297;28;20495;-71
2023/07/22 03:42:19;;;;;;;9.47;7.17;;;15.40;99.90;;;;;;5066899;28;20522;-71
2023/07/22 03:44:44;;;;;;;7.77;6.77;;;15.40;99.90;;;;;;5067150;28;20729;-71
2023/07/22 03:47:10;;;;;;;8.33;6.53;;;15.40;99.90;;;;;;5066913;28;20201;-71
2023/07/22 03:49:36;;;;;;;8.90;8.00;;;15.40;99.90;;;;;;5067387;28;20185;-71
2023/07/22 03:52:01;;;;;;;11.13;7.60;;;15.40;99.90;;;;;;5066823;28;20205;-71
2023/07/22 03:54:27;;;;;;;9.20;6.57;;;15.50;99.90;;;;;;5066974;28;20234;-71
2023/07/22 03:56:53;;;;;;;8.33;6.27;;;15.50;99.90;;;;;;5066408;28;20215;-71
2023/07/22 03:59:18;;;;;;;9.30;7.47;;;15.50;99.90;;;;;;5067114;28;20181;-71
2023/07/22 04:01:45;;;;;;;7.50;6.70;;;15.50;99.90;;;;;;5067506;28;20239;-71
2023/07/22 04:04:11;;;;;;;8.60;6.30;;;15.50;99.90;;;;;;5068972;28;20185;-70
2023/07/22 04:06:37;;;;;;;7.30;6.43;;;15.50;99.90;;;;;;5070572;28;20989;-71
2023/07/22 04:09:02;;;;;;;7.07;6.40;;;15.50;99.90;;;;;;5070894;28;20527;-71
2023/07/22 04:11:28;;;;;;;8.80;6.50;;;15.50;99.90;;;;;;5070824;28;20212;-71
2023/07/22 04:13:54;;;;;;;8.37;7.13;;;15.40;99.90;;;;;;5070361;28;20181;-71
2023/07/22 04:16:19;;;;;;;6.80;5.93;;;15.50;99.90;;;;;;5070634;28;20338;-71
2023/07/22 04:18:45;;;;;;;6.70;6.00;;;15.50;99.90;;;;;;5070630;28;20177;-70
2023/07/22 04:21:10;;;;;;;7.63;6.50;;;15.50;99.90;;;;;;5070730;28;20183;-71
2023/07/22 04:23:37;;;;;;;7.60;6.33;;;15.50;99.90;;;;;;5070258;28;20181;-71
2023/07/22 04:26:04;;;;;;;7.47;6.20;;;15.50;99.90;;;;;;5070101;28;20236;-71
2023/07/22 04:28:30;;;;;;;8.60;7.27;;;15.50;99.90;;;;;;5070627;28;20943;-71
2023/07/22 04:30:58;;;;;;;8.03;6.23;;;15.60;99.90;;;;;;5070397;28;20766;-71
2023/07/22 04:33:24;;;;;;;6.53;5.87;;;15.60;99.90;;;;;;5070157;28;20420;-71
2023/07/22 04:35:53;;;;;;;8.20;6.80;;;15.50;99.90;;;;;;5070094;28;20407;-71
2023/07/22 04:38:18;;;;;;;7.93;6.80;;;15.50;99.90;;;;;;5070329;28;20904;-71
2023/07/22 04:40:44;;;;;;;6.80;5.87;;;15.60;99.90;;;;;;5070263;28;20472;-71
2023/07/22 04:43:10;;;;;;;7.50;6.60;;;15.60;99.90;;;;;;5070005;28;20180;-71
2023/07/22 04:45:36;;;;;;;7.63;6.30;;;15.60;99.90;;;;;;5070045;28;20209;-71
2023/07/22 04:48:02;;;;;;;7.37;6.47;;;15.70;99.90;;;;;;5070245;28;20181;-71
2023/07/22 04:50:27;;;;;;;7.20;6.30;;;15.70;99.90;;;;;;5070330;28;20458;-71
2023/07/22 04:52:54;;;;;;;7.63;5.93;;;15.70;99.90;;;;;;5067689;28;20419;-71
2023/07/22 04:55:20;;;;;;;6.70;6.10;;;15.70;99.90;;;;;;5069528;28;20189;-71
2023/07/22 04:57:46;;;;;;;7.37;6.17;;;15.70;99.90;;;;;;5068907;28;20441;-71
2023/07/22 05:00:16;;;;;;;6.43;5.67;;;15.70;99.90;;;;;;5070180;28;20188;-71
2023/07/22 05:02:49;;;;;;;7.63;6.60;;;15.70;99.90;;;;;;5069804;28;20169;-71
2023/07/22 05:05:15;;;;;;;8.17;5.77;;;15.80;99.90;;;;;;5069685;28;20541;-71
2023/07/22 05:07:42;;;;;;;7.23;5.57;;;15.70;99.90;;;;;;5069919;28;20432;-71
2023/07/22 05:10:11;;;;;;;7.23;6.13;;;15.80;99.90;;;;;;5065085;28;20439;-71
2023/07/22 05:12:38;;;;;;;8.40;6.70;;;15.80;99.90;;;;;;5069222;28;20423;-71
2023/07/22 05:15:05;;;;;;;6.70;5.60;;;15.80;99.90;;;;;;5066580;28;21024;-71
2023/07/22 05:17:31;;;;;;;6.73;6.03;;;15.80;99.90;;;;;;5070081;28;20423;-71
2023/07/22 05:19:57;;;;;;;8.60;6.43;;;15.80;99.90;;;;;;5068281;28;20495;-71
2023/07/22 05:22:23;;;;;;;8.10;6.43;;;15.80;99.90;;;;;;5069374;28;20169;-71
2023/07/22 05:24:49;;;;;;;7.43;6.20;;;15.80;99.90;;;;;;5069164;28;20547;-71
2023/07/22 05:27:15;;;;;;;6.90;5.40;;;15.80;99.90;;;;;;5069217;28;20431;-71
2023/07/22 05:29:41;;;;;;;6.80;5.93;;;15.80;99.90;;;;;;5067840;28;20177;-71
2023/07/22 05:32:07;;;;;;;10.73;5.63;;;15.90;99.90;;;;;;5068949;28;20404;-71
2023/07/22 05:34:33;;;;;;;6.87;5.50;;;15.80;99.90;;;;;;5069307;28;20168;-71
2023/07/22 05:36:59;;;;;;;7.00;5.73;;;15.80;99.90;;;;;;5068991;28;20419;-71
2023/07/22 05:39:26;;;;;;;7.30;5.70;;;15.80;99.90;;;;;;5069322;28;20173;-71
2023/07/22 05:41:51;;;;;;;6.03;5.43;;;15.90;99.90;;;;;;5069508;28;20177;-71
2023/07/22 05:44:17;;;;;;;6.37;5.60;;;15.90;99.90;;;;;;5068691;28;20456;-70
2023/07/22 05:46:43;;;;;;;6.17;5.33;;;16.00;99.90;;;;;;5069123;28;20212;-71
2023/07/22 05:49:10;;;;;;;8.80;6.33;;;16.00;99.90;;;;;;5068988;28;20189;-71
2023/07/22 05:51:36;;;;;;;9.03;6.17;;;16.10;99.90;;;;;;5069029;28;20176;-71
2023/07/22 05:54:02;;;;;;;6.80;5.90;;;16.10;99.90;;;;;;5068594;28;20780;-71
2023/07/22 05:56:28;;;;;;;6.93;6.23;;;16.20;99.90;;;;;;5068180;28;20427;-70
2023/07/22 05:58:54;;;;;;;7.00;5.80;;;16.30;99.90;;;;;;5068895;28;20256;-71
2023/07/22 06:01:19;;;;;;;9.37;6.10;;;16.50;99.90;;;;;;5068650;28;20177;-71
2023/07/22 06:03:45;;;;;;;8.70;7.27;;;16.70;99.90;;;;;;5068433;28;20427;-70
2023/07/22 06:06:11;;;;;;;6.20;5.60;;;16.90;99.90;;;;;;5068580;28;20708;-70
2023/07/22 06:08:37;;;;;;;8.60;6.77;;;17.10;99.90;;;;;;5068582;28;20174;-70
2023/07/22 06:11:02;;;;;;;9.30;6.73;;;17.30;99.90;;;;;;5068704;28;20246;-70
2023/07/22 06:13:28;;;;;;;6.47;5.77;;;17.40;99.90;;;;;;5068310;28;20204;-71
2023/07/22 06:15:54;;;;;;;6.63;5.73;;;17.50;99.90;;;;;;5068295;28;20181;-70
2023/07/22 06:18:19;;;;;;;8.20;6.30;;;17.70;99.90;;;;;;5063683;28;20283;-70
2023/07/22 06:20:45;;;;;;;7.27;6.20;;;17.70;99.90;;;;;;5064737;28;20190;-70
2023/07/22 06:23:11;;;;;;;7.20;6.20;;;17.80;99.90;;;;;;5064036;28;20273;-70
2023/07/22 06:25:36;;;;;;;8.57;6.27;;;17.90;99.90;;;;;;5066792;28;20741;-70
2023/07/22 06:28:07;;;;;;;7.97;6.83;;;18.00;99.90;;;;;;5068243;28;20254;-70
2023/07/22 06:30:32;;;;;;;8.13;6.30;;;18.10;99.90;;;;;;5064881;28;20231;-70
2023/07/22 06:32:58;;;;;;;8.70;6.40;;;18.20;99.90;;;;;;5067595;28;20403;-69
2023/07/22 06:35:24;;;;;;;7.13;5.93;;;18.20;99.90;;;;;;5068064;28;20181;-69
2023/07/22 06:37:49;;;;;;;6.50;5.77;;;18.30;99.90;;;;;;5068274;28;20193;-69
2023/07/22 06:40:15;;;;;;;8.27;6.57;;;18.30;99.90;;;;;;5065859;28;20204;-69
2023/07/22 06:42:41;;;;;;;8.17;6.70;;;18.40;99.90;;;;;;5067093;28;20534;-72
2023/07/22 06:45:07;;;;;;;7.03;5.80;;;18.50;99.90;;;;;;5067881;28;20200;-72
2023/07/22 06:47:33;;;;;;;6.90;6.20;;;18.70;99.90;;;;;;5068079;28;20250;-69
2023/07/22 06:49:58;;;;;;;9.67;6.20;;;18.80;99.90;;;;;;5065377;28;20419;-69
2023/07/22 06:52:24;;;;;;;9.37;6.90;;;18.90;99.90;;;;;;5064446;28;20181;-69
2023/07/22 06:54:49;;;;;;;9.53;6.73;;;19.00;99.90;;;;;;5065351;28;20189;-69
2023/07/22 06:57:15;;;;;;;10.80;6.37;;;19.10;99.90;;;;;;5066302;28;20586;-70
2023/07/22 06:59:41;;;;;;;7.53;6.73;;;19.30;99.90;;;;;;5067932;28;20180;-69
2023/07/22 07:02:08;;;;;;;8.63;7.13;;;19.20;99.90;;;;;;5067711;28;20498;-69
2023/07/22 07:04:34;;;;;;;9.90;7.63;;;19.30;99.90;;;;;;5067733;28;20197;-71
2023/07/22 07:06:59;;;;;;;8.70;7.10;;;19.30;99.90;;;;;;5067562;28;20541;-70
2023/07/22 07:09:25;;;;;;;6.53;5.83;;;19.40;99.90;;;;;;5067852;28;20453;-70
2023/07/22 07:11:51;;;;;;;8.73;6.73;;;19.40;99.90;;;;;;5067631;28;20661;-70
2023/07/22 07:14:17;;;;;;;6.67;6.00;;;19.50;99.90;;;;;;5067272;28;20192;-70
2023/07/22 07:16:43;;;;;;;7.60;6.33;;;19.50;99.90;;;;;;5067655;28;20442;-70
2023/07/22 07:19:09;;;;;;;7.60;5.90;;;19.50;99.90;;;;;;5062519;28;20431;-70
2023/07/22 07:21:35;;;;;;;7.40;6.20;;;19.50;99.90;;;;;;5067428;28;20422;-70
2023/07/22 07:24:01;;;;;;;6.43;5.73;;;19.50;99.90;;;;;;5067267;28;20411;-70
2023/07/22 07:26:27;;;;;;;7.90;7.10;;;19.50;99.90;;;;;;5067630;28;20272;-70
2023/07/22 07:28:53;;;;;;;9.20;5.90;;;19.60;99.90;;;;;;5067491;28;20999;-70
2023/07/22 07:31:19;;;;;;;7.87;6.27;;;19.70;99.90;;;;;;5061709;28;20267;-70
2023/07/22 07:33:45;;;;;;;9.00;7.10;;;19.80;99.90;;;;;;5065585;28;20242;-70
2023/07/22 07:36:10;;;;;;;6.67;5.67;;;19.80;99.90;;;;;;5066986;28;20550;-71
2023/07/22 07:38:36;;;;;;;7.50;6.20;;;19.80;99.90;;;;;;5070848;28;20193;-70
2023/07/22 07:41:03;;;;;;;7.90;6.17;;;19.90;99.90;;;;;;5068916;28;20185;-70
2023/07/22 07:43:29;;;;;;;7.03;4.87;;;19.90;99.90;;;;;;5070826;28;20657;-70
2023/07/22 07:46:17;;;;;;;8.00;6.60;;;20.00;99.90;;;;;;5061880;28;20478;-70
2023/07/22 07:48:44;;;;;;;8.10;6.30;;;20.10;99.90;;;;;;5069878;28;20509;-71
2023/07/22 07:51:11;;;;;;;7.07;6.03;;;20.10;99.90;;;;;;5070931;28;20404;-71
2023/07/22 07:53:37;;;;;;;9.03;6.80;;;20.20;99.90;;;;;;5070935;28;20781;-71
2023/07/22 07:56:03;;;;;;;7.57;6.00;;;20.20;99.90;;;;;;5068552;28;20408;-71
2023/07/22 07:58:29;;;;;;;10.03;7.10;;;20.20;99.90;;;;;;5070829;28;20184;-71
2023/07/22 08:00:55;;;;;;;9.00;7.60;;;20.30;99.90;;;;;;5071237;28;20415;-71
2023/07/22 08:03:20;;;;;;;8.57;6.83;;;20.30;99.90;;;;;;5070317;28;20530;-70
2023/07/22 08:05:46;;;;;;;7.87;7.10;;;20.40;99.90;;;;;;5070704;28;20201;-71
2023/07/22 08:08:12;;;;;;;9.67;7.03;;;20.40;99.90;;;;;;5070489;28;20236;-71
2023/07/22 08:10:38;;;;;;;10.57;7.70;;;20.40;99.90;;;;;;5071047;28;20214;-71
2023/07/22 08:13:04;;;;;;;9.97;6.37;;;20.40;99.90;;;;;;5070650;28;20260;-71
2023/07/22 08:15:30;;;;;;;7.73;7.03;;;20.40;99.90;;;;;;5070489;28;20946;-71
2023/07/22 08:17:55;;;;;;;9.10;6.97;;;20.40;99.90;;;;;;5070751;28;20615;-71
2023/07/22 08:20:21;;;;;;;9.50;8.50;;;20.40;99.90;;;;;;5069462;28;20613;-71
2023/07/22 08:22:47;;;;;;;9.70;7.30;;;20.30;99.90;;;;;;5070255;28;20183;-71
2023/07/22 08:25:13;;;;;;;8.30;7.47;;;20.20;99.90;;;;;;5070672;28;20447;-71
2023/07/22 08:27:39;;;;;;;8.57;7.03;;;20.00;99.90;;;;;;5070400;28;20196;-70
2023/07/22 08:30:05;;;;;;;12.20;7.70;;;20.00;99.90;;;;;;5070475;28;20177;-70
2023/07/22 08:32:30;;;;;;;8.03;7.00;;;20.00;99.90;;;;;;5069983;28;20613;-70
2023/07/22 08:34:56;;;;;;;10.33;6.97;;;20.00;99.90;;;;;;5070234;28;20491;-70
2023/07/22 08:37:22;;;;;;;11.30;7.83;;;20.10;99.90;;;;;;5070305;28;20296;-71
2023/07/22 08:39:47;;;;;;;9.63;8.20;;;20.10;99.90;;;;;;5065564;28;20190;-71
2023/07/22 08:42:18;;;;;;;8.00;6.77;;;20.10;99.90;;;;;;5065089;28;20227;-70
2023/07/22 08:44:47;;;;;;;8.63;7.70;;;20.10;99.90;;;;;;5069460;28;20235;-70
2023/07/22 08:47:17;;;;;;;9.30;7.33;;;20.10;99.90;;;;;;5070377;28;20427;-70
2023/07/22 08:49:49;;;;;;;8.47;7.60;;;20.10;99.90;;;;;;5065633;28;20518;-70
2023/07/22 08:52:15;;;;;;;9.33;7.83;;;20.20;99.90;;;;;;5064849;28;20461;-70
2023/07/22 08:54:42;;;;;;;8.57;7.20;;;20.30;99.90;;;;;;5069530;28;20411;-70
2023/07/22 08:57:10;;;;;;;12.23;8.30;;;20.40;99.90;;;;;;5068174;28;20247;-70
2023/07/22 08:59:37;;;;;;;9.70;7.77;;;20.40;99.90;;;;;;5062040;28;20455;-70
2023/07/22 09:02:03;;;;;;;10.70;6.90;;;20.50;99.80;;;;;;5064499;28;20473;-70
2023/07/22 09:04:29;;;;;;;7.53;6.70;;;20.40;99.60;;;;;;5064023;28;20443;-70
2023/07/22 09:06:56;;;;;;;8.90;7.80;;;20.40;99.60;;;;;;5058651;28;20452;-71
2023/07/22 09:09:22;;;;;;;8.33;6.93;;;20.40;99.90;;;;;;5068660;28;20418;-70
2023/07/22 09:11:48;;;;;;;7.90;7.10;;;20.40;99.90;;;;;;5060137;28;20439;-70
2023/07/22 09:14:18;;;;;;;7.73;6.83;;;20.50;99.90;;;;;;5061455;28;20481;-70
2023/07/22 09:16:44;;;;;;;9.07;8.10;;;20.60;99.90;;;;;;5064372;28;20452;-70
2023/07/22 09:19:09;;;;;;;8.63;7.73;;;20.70;99.70;;;;;;5063405;28;20885;-70
2023/07/22 09:21:38;;;;;;;7.27;6.57;;;20.70;99.80;;;;;;5066346;28;20185;-70
2023/07/22 09:24:33;;;;;;;8.47;7.30;;;20.80;99.70;;;;;;5068453;28;20204;-70
2023/07/22 09:26:59;;;;;;;7.07;6.27;;;21.00;98.80;;;;;;5068367;28;20446;-70
2023/07/22 09:29:35;;;;;;;8.77;6.00;;;20.90;98.50;;;;;;5069037;28;20400;-70
2023/07/22 09:32:03;;;;;;;8.33;6.90;;;20.80;98.80;;;;;;5069076;28;20176;-70
2023/07/22 09:34:29;;;;;;;8.40;7.50;;;20.80;99.00;;;;;;5069435;28;20396;-70
2023/07/22 09:37:03;;;;;;;7.70;6.87;;;20.80;98.90;;;;;;5069116;28;20427;-70
2023/07/22 09:39:29;;;;;;;6.67;5.73;;;20.70;99.20;;;;;;5069393;28;20414;-70
2023/07/22 09:41:55;;;;;;;6.40;5.73;;;20.70;97.80;;;;;;5067067;28;21031;-70
2023/07/22 09:44:28;;;;;;;8.67;5.60;;;20.70;98.00;;;;;;5068229;28;20432;-70
2023/07/22 09:46:53;;;;;;;7.33;6.00;;;20.70;98.30;;;;;;5068503;28;20292;-70
2023/07/22 09:49:20;;;;;;;7.27;5.90;;;20.70;98.80;;;;;;5064826;28;20514;-70
2023/07/22 09:51:46;;;;;;;7.63;5.57;;;20.70;98.40;;;;;;5065121;28;20586;-70
2023/07/22 09:54:11;;;;;;;6.53;5.37;;;20.70;98.60;;;;;;5063800;28;20428;-70
2023/07/22 09:56:45;;;;;;;6.47;5.77;;;20.70;98.60;;;;;;5057235;28;20209;-70
2023/07/22 09:59:11;;;;;;;6.37;5.37;;;20.70;98.60;;;;;;5068203;28;20626;-70
2023/07/22 10:01:39;;;;;;;6.37;5.77;;;20.80;98.80;;;;;;5066984;28;20414;-70
2023/07/22 10:04:06;;;;;;;7.37;5.57;;;20.90;98.80;;;;;;5067598;28;20208;-70
2023/07/22 10:06:33;;;;;;;5.87;5.30;;;21.00;98.50;;;;;;5068395;28;20485;-70
2023/07/22 10:09:07;;;;;;;6.93;5.90;;;21.00;97.40;;;;;;5068675;28;20415;-70
2023/07/22 10:11:34;;;;;;;6.33;5.17;;;20.90;97.60;;;;;;5069060;28;20410;-70
2023/07/22 10:14:01;;;;;;;5.60;4.80;;;20.90;97.50;;;;;;5068210;28;20400;-70
2023/07/22 10:16:28;;;;;;;6.77;5.13;;;21.00;97.70;;;;;;5068263;28;20431;-70
2023/07/22 10:18:54;;;;;;;6.53;5.50;;;21.00;97.90;;;;;;5068513;28;20507;-70
2023/07/22 10:21:20;;;;;;;10.63;6.00;;;21.10;97.80;;;;;;5068306;28;20494;-70
2023/07/22 10:23:48;;;;;;;5.80;5.23;;;21.10;97.60;;;;;;5068092;28;20422;-70
2023/07/22 10:26:18;;;;;;;7.77;5.97;;;21.20;98.10;;;;;;5067845;28;20550;-71
2023/07/22 10:28:46;;;;;;;5.37;4.73;;;21.30;97.90;;;;;;5068735;28;20438;-71
2023/07/22 10:31:13;;;;;;;5.77;5.27;;;21.40;97.40;;;;;;5068157;28;20912;-71
2023/07/22 10:33:39;;;;;;;9.53;5.40;;;21.50;98.30;;;;;;5067934;28;20458;-71
2023/07/22 10:36:12;;;;;;;5.40;4.77;;;21.70;97.80;;;;;;5067841;28;20776;-71
2023/07/22 10:38:38;;;;;;;6.10;5.40;;;21.90;96.70;;;;;;5067001;28;20423;-71
2023/07/22 10:41:16;;;;;;;5.87;5.13;;;21.80;96.40;;;;;;5068064;28;20904;-71
2023/07/22 10:43:53;;;;;;;5.60;4.50;;;21.70;96.60;;;;;;5067827;28;20506;-71
2023/07/22 10:46:43;;;;;;;6.27;5.00;;;21.80;96.30;;;;;;5067725;28;20455;-71
2023/07/22 10:49:15;;;;;;;4.63;4.23;;;21.90;96.10;;;;;;5068391;28;20720;-70
2023/07/22 10:51:47;;;;;;;5.83;4.80;;;22.00;96.00;;;;;;5067979;28;20418;-70
2023/07/22 10:54:14;;;;;;;8.33;4.37;;;22.10;96.10;;;;;;5067771;28;20494;-70
2023/07/22 10:56:46;;;;;;;6.90;4.83;;;22.10;95.20;;;;;;5067514;28;20990;-71
2023/07/22 10:59:12;;;;;;;6.10;5.10;;;22.10;95.20;;;;;;5067983;28;20420;-70
2023/07/22 11:01:43;;;;;;;5.67;4.67;;;22.10;95.50;;;;;;5067645;28;20423;-70
2023/07/22 11:04:15;;;;;;;4.87;4.33;;;22.20;95.20;;;;;;5067449;28;20525;-70
2023/07/22 11:06:43;;;;;;;4.23;3.83;;;22.30;95.90;;;;;;5067297;28;20459;-70
2023/07/22 11:09:27;;;;;;;5.30;4.20;;;22.30;94.90;;;;;;5068125;28;20510;-70
2023/07/22 11:11:59;;;;;;;5.20;4.70;;;22.40;94.90;;;;;;5060695;28;20904;-70
2023/07/22 11:14:27;;;;;;;4.50;3.73;;;22.40;95.00;;;;;;5059538;28;20493;-70
2023/07/22 11:16:53;;;;;;;5.10;3.80;;;22.50;94.20;;;;;;5065766;28;20561;-70
2023/07/22 11:19:21;;;;;;;3.80;3.30;;;22.50;94.40;;;;;;5067030;28;20423;-69
2023/07/22 11:21:50;;;;;;;3.73;3.43;;;22.50;94.40;;;;;;5067661;28;20411;-70
2023/07/22 11:24:17;;;;;;;4.33;3.43;;;22.50;94.10;;;;;;5067408;28;20863;-70
2023/07/22 11:26:47;;;;;;;4.50;3.93;;;22.50;93.50;;;;;;5067791;28;20455;-70
2023/07/22 11:29:14;;;;;;;4.57;3.33;;;22.50;93.90;;;;;;5066373;28;20441;-70
2023/07/22 11:31:42;;;;;;;4.47;3.00;;;22.50;93.60;;;;;;5067658;28;20880;-70
2023/07/22 11:34:09;;;;;;;3.90;2.70;;;22.50;92.90;;;;;;5066653;28;20502;-69
2023/07/22 11:36:35;;;;;;;5.40;2.97;;;22.60;93.20;;;;;;5067334;28;20435;-70
2023/07/22 11:39:06;;;;;;;3.00;2.60;;;22.60;92.60;;;;;;5067496;28;20740;-70
2023/07/22 11:41:32;;;;;;;3.17;2.87;;;22.70;93.20;;;;;;5067503;28;20458;-70
2023/07/22 11:43:59;;;;;;;3.10;2.80;;;22.80;92.50;;;;;;5067054;28;20496;-70
2023/07/22 11:46:26;;;;;;;4.07;3.17;;;22.80;92.10;;;;;;5066165;28;20548;-70
2023/07/22 11:48:54;;;;;;;5.20;3.03;;;22.70;92.40;;;;;;5065939;28;20977;-70
2023/07/22 11:51:24;;;;;;;3.80;3.40;;;22.70;92.70;;;;;;5066878;28;20416;-70
2023/07/22 11:53:51;;;;;;;5.40;2.97;;;22.80;93.60;;;;;;5066129;28;20465;-70
2023/07/22 11:56:28;;;;;;;4.17;3.40;;;22.90;92.90;;;;;;5066258;28;20496;-70
2023/07/22 11:58:56;;;;;;;4.53;3.07;;;23.00;93.20;;;;;;5067288;28;20782;-70
2023/07/22 12:01:22;;;;;;;3.23;2.60;;;23.00;91.70;;;;;;5066032;28;20792;-70
2023/07/22 12:03:49;;;;;;;3.37;2.83;;;22.90;92.40;;;;;;5065568;28;20441;-70
2023/07/22 12:06:15;;;;;;;3.10;2.30;;;22.90;92.80;;;;;;5066765;28;20463;-70
2023/07/22 12:08:48;;;;;;;3.23;2.83;;;22.80;92.00;;;;;;5067285;28;20461;-70
2023/07/22 12:11:18;;;;;;;4.00;2.90;;;22.90;92.50;;;;;;5067149;28;20414;-70
2023/07/22 12:13:46;;;;;;;4.20;3.00;;;22.90;92.50;;;;;;5066756;28;20415;-70
2023/07/22 12:16:13;;;;;;;6.90;3.37;;;23.00;92.20;;;;;;5066805;28;21007;-70
2023/07/22 12:18:45;;;;;;;4.60;2.83;;;23.10;92.50;;;;;;5067241;28;20409;-70
2023/07/22 12:21:11;;;;;;;2.90;2.70;;;23.20;92.20;;;;;;5067297;28;20411;-70
2023/07/22 12:23:37;;;;;;;3.37;2.80;;;23.20;92.20;;;;;;5066754;28;20506;-70
2023/07/22 12:26:04;;;;;;;4.33;2.50;;;23.10;91.40;;;;;;5070071;28;20451;-70
2023/07/22 12:28:30;;;;;;;2.90;2.33;;;23.10;91.20;;;;;;5070569;28;20910;-70
2023/07/22 12:30:57;;;;;;;2.90;2.37;;;23.10;91.70;;;;;;5070424;28;20435;-70
2023/07/22 12:33:26;;;;;;;3.90;2.83;;;23.00;91.60;;;;;;5070414;28;20223;-70
2023/07/22 12:35:57;;;;;;;3.13;2.67;;;23.10;91.00;;;;;;5070206;28;20407;-70
2023/07/22 12:38:23;;;;;;;2.73;2.27;;;23.10;89.40;;;;;;5066878;28;20439;-70
2023/07/22 12:40:49;;;;;;;3.70;3.10;;;23.10;90.60;;;;;;5067139;28;20435;-70
2023/07/22 12:43:15;;;;;;;2.63;2.20;;;23.20;88.80;;;;;;5069532;28;20782;-70
2023/07/22 12:45:40;;;;;;;3.00;2.70;;;23.20;87.20;;;;;;5069840;28;20490;-70